createdAt,value
2023-04-13T00:01:11.411Z,95.20
2023-04-13T00:03:39.397Z,95.20
2023-04-13T00:06:10.958Z,95.20
2023-04-13T00:08:38.188Z,95.20
2023-04-13T00:11:07.386Z,95.20
2023-04-13T00:13:40.857Z,95.20
2023-04-13T00:16:13.235Z,95.10
2023-04-13T00:18:40.119Z,95.10
2023-04-13T00:21:07.430Z,95.10
2023-04-13T00:23:36.041Z,95.10
2023-04-13T00:26:03.049Z,95.10
2023-04-13T00:28:30.156Z,95.10
2023-04-13T00:30:57.141Z,95.10
2023-04-13T00:33:24.109Z,95.10
2023-04-13T00:35:51.253Z,95.10
2023-04-13T00:38:18.228Z,95.10
2023-04-13T00:40:45.134Z,95.10
2023-04-13T00:43:11.920Z,95.10
2023-04-13T00:45:39.573Z,95.10
2023-04-13T00:48:12.328Z,95.10
2023-04-13T00:50:40.368Z,95.10
2023-04-13T00:53:10.691Z,95.10
2023-04-13T00:55:42.066Z,95.10
2023-04-13T00:58:09.198Z,95.10
2023-04-13T01:00:39.402Z,95.10
2023-04-13T01:03:07.082Z,95.20
2023-04-13T01:06:06.110Z,95.20
2023-04-13T01:08:45.382Z,95.20
2023-04-13T01:11:22.024Z,95.20
2023-04-13T01:14:13.080Z,95.20
2023-04-13T01:16:46.368Z,95.20
2023-04-13T01:19:33.846Z,95.20
2023-04-13T01:22:02.439Z,95.20
2023-04-13T01:24:35.457Z,95.20
2023-04-13T01:27:11.383Z,95.20
2023-04-13T01:29:39.223Z,95.20
2023-04-13T01:32:07.165Z,95.20
2023-04-13T01:34:34.709Z,95.20
2023-04-13T01:37:04.676Z,95.20
2023-04-13T01:39:33.189Z,95.10
2023-04-13T01:42:00.252Z,95.10
2023-04-13T01:44:32.366Z,95.10
2023-04-13T01:47:15.582Z,95.10
2023-04-13T01:49:56.235Z,95.10
2023-04-13T01:52:27.842Z,95.10
2023-04-13T01:54:56.378Z,95.10
2023-04-13T01:57:24.514Z,95.10
2023-04-13T01:59:51.253Z,95.10
2023-04-13T02:02:18.099Z,95.10
2023-04-13T02:04:45.065Z,95.10
2023-04-13T02:07:12.442Z,95.00
2023-04-13T02:09:39.289Z,95.00
2023-04-13T02:12:06.296Z,95.00
2023-04-13T02:14:33.541Z,95.00
2023-04-13T02:17:00.285Z,95.00
2023-04-13T02:19:27.030Z,95.00
2023-04-13T02:21:53.740Z,95.00
2023-04-13T02:24:20.632Z,95.00
2023-04-13T02:26:47.710Z,95.00
2023-04-13T02:29:15.017Z,95.00
2023-04-13T02:31:44.066Z,95.00
2023-04-13T02:34:11.428Z,95.00
2023-04-13T02:36:39.273Z,95.00
2023-04-13T02:39:06.020Z,94.90
2023-04-13T02:41:32.782Z,94.90
2023-04-13T02:44:00.029Z,94.90
2023-04-13T02:48:59.694Z,94.90
2023-04-13T02:51:28.006Z,94.90
2023-04-13T02:53:57.800Z,94.90
2023-04-13T02:56:28.184Z,94.80
2023-04-13T02:58:55.207Z,94.90
2023-04-13T03:01:25.106Z,94.90
2023-04-13T03:03:51.901Z,94.90
2023-04-13T03:06:18.644Z,94.80
2023-04-13T03:08:46.341Z,94.80
2023-04-13T03:11:13.095Z,94.80
2023-04-13T03:13:39.832Z,94.80
2023-04-13T03:16:06.897Z,94.80
2023-04-13T03:18:33.602Z,94.80
2023-04-13T03:21:01.912Z,94.80
2023-04-13T03:23:29.047Z,94.80
2023-04-13T03:25:56.000Z,94.80
2023-04-13T03:28:23.230Z,94.80
2023-04-13T03:30:50.272Z,94.90
2023-04-13T03:33:17.042Z,94.80
2023-04-13T03:35:43.911Z,94.80
2023-04-13T03:38:11.527Z,94.80
2023-04-13T03:40:38.376Z,94.80
2023-04-13T03:43:05.194Z,94.80
2023-04-13T03:45:31.893Z,94.80
2023-04-13T03:47:58.681Z,94.80
2023-04-13T03:50:25.506Z,94.80
2023-04-13T03:52:52.276Z,94.70
2023-04-13T03:55:19.119Z,94.70
2023-04-13T03:57:45.995Z,94.70
2023-04-13T04:00:14.340Z,94.70
2023-04-13T04:02:42.141Z,94.70
2023-04-13T04:05:10.321Z,94.70
2023-04-13T04:07:37.178Z,94.70
2023-04-13T04:10:04.751Z,94.70
2023-04-13T04:12:32.420Z,94.70
2023-04-13T04:14:59.213Z,94.80
2023-04-13T04:17:26.021Z,94.80
2023-04-13T04:19:53.134Z,94.80
2023-04-13T04:22:19.917Z,94.80
2023-04-13T04:24:46.716Z,94.80
2023-04-13T04:27:14.436Z,94.80
2023-04-13T04:29:41.253Z,94.80
2023-04-13T04:32:10.858Z,94.80
2023-04-13T04:34:38.778Z,94.70
2023-04-13T04:37:17.832Z,94.70
2023-04-13T04:39:47.779Z,94.70
2023-04-13T04:42:14.609Z,94.70
2023-04-13T04:44:41.357Z,94.70
2023-04-13T04:47:09.314Z,94.70
2023-04-13T04:49:36.494Z,94.70
2023-04-13T04:52:03.798Z,94.70
2023-04-13T04:54:30.586Z,94.70
2023-04-13T04:56:58.178Z,94.60
2023-04-13T04:59:24.929Z,94.60
2023-04-13T05:01:52.405Z,94.60
2023-04-13T05:04:19.230Z,94.70
2023-04-13T05:06:45.975Z,94.70
2023-04-13T05:09:14.807Z,94.70
2023-04-13T05:11:41.521Z,94.70
2023-04-13T05:14:08.279Z,94.60
2023-04-13T05:16:35.151Z,94.70
2023-04-13T05:19:02.272Z,94.60
2023-04-13T05:21:29.209Z,94.60
2023-04-13T05:23:56.605Z,94.70
2023-04-13T05:26:25.439Z,94.70
2023-04-13T05:28:52.392Z,94.70
2023-04-13T05:31:19.165Z,94.70
2023-04-13T05:33:46.596Z,94.80
2023-04-13T05:36:13.587Z,94.80
2023-04-13T05:38:40.441Z,94.90
2023-04-13T05:41:07.372Z,94.90
2023-04-13T05:43:36.846Z,94.90
2023-04-13T05:46:03.713Z,95.00
2023-04-13T05:48:33.512Z,95.00
2023-04-13T05:51:01.152Z,95.00
2023-04-13T05:53:27.977Z,95.00
2023-04-13T05:55:55.237Z,95.10
2023-04-13T05:58:22.139Z,95.10
2023-04-13T06:00:48.901Z,95.10
2023-04-13T06:03:17.138Z,95.00
2023-04-13T06:05:44.800Z,95.00
2023-04-13T06:08:11.858Z,94.90
2023-04-13T06:10:38.822Z,94.90
2023-04-13T06:13:05.785Z,94.80
2023-04-13T06:15:33.101Z,94.60
2023-04-13T06:17:59.865Z,94.40
2023-04-13T06:20:26.602Z,93.80
2023-04-13T06:22:53.314Z,93.60
2023-04-13T06:25:20.087Z,92.90
2023-04-13T06:27:49.983Z,92.90
2023-04-13T06:30:17.215Z,92.20
2023-04-13T06:32:44.051Z,92.20
2023-04-13T06:35:11.252Z,84.50
2023-04-13T06:37:38.974Z,76.40
2023-04-13T06:40:12.785Z,77.50
2023-04-13T06:42:41.106Z,66.40
2023-04-13T06:45:09.277Z,59.10
2023-04-13T06:47:37.364Z,62.60
2023-04-13T06:50:06.854Z,68.40
2023-04-13T06:52:34.732Z,1.20
2023-04-13T06:55:02.309Z,1.00
2023-04-13T06:57:29.937Z,1.00
2023-04-13T06:59:56.915Z,1.00
2023-04-13T07:02:23.827Z,1.00
2023-04-13T07:04:50.917Z,1.00
2023-04-13T07:07:18.016Z,1.00
2023-04-13T07:09:44.952Z,1.00
2023-04-13T07:12:11.828Z,1.00
2023-04-13T07:14:40.021Z,1.00
2023-04-13T07:17:07.351Z,89.50
2023-04-13T07:19:35.749Z,1.00
2023-04-13T07:22:02.921Z,1.00
2023-04-13T07:24:30.344Z,85.90
2023-04-13T07:26:58.099Z,1.00
2023-04-13T07:29:25.863Z,80.20
2023-04-13T07:31:53.095Z,1.00
2023-04-13T07:34:20.021Z,90.80
2023-04-13T07:36:46.955Z,75.00
2023-04-13T07:39:13.697Z,92.30
2023-04-13T07:41:40.718Z,1.00
2023-04-13T07:44:07.784Z,1.00
2023-04-13T07:46:34.637Z,24.10
2023-04-13T07:49:01.488Z,20.80
2023-04-13T07:51:28.316Z,4.60
2023-04-13T07:53:55.564Z,1.00
2023-04-13T07:56:22.806Z,1.00
2023-04-13T07:58:50.684Z,69.50
2023-04-13T08:01:18.497Z,1.00
2023-04-13T08:03:45.382Z,88.50
2023-04-13T08:06:12.153Z,67.80
2023-04-13T08:08:38.875Z,1.00
2023-04-13T08:11:06.869Z,1.00
2023-04-13T08:13:33.636Z,1.00
2023-04-13T08:16:00.537Z,1.00
2023-04-13T08:18:27.865Z,80.90
2023-04-13T08:20:55.120Z,32.70
2023-04-13T08:23:25.634Z,74.40
2023-04-13T08:25:52.363Z,1.00
2023-04-13T08:28:19.079Z,1.00
2023-04-13T08:30:46.149Z,9.90
2023-04-13T08:33:13.368Z,1.00
2023-04-13T08:35:40.140Z,86.20
2023-04-13T08:38:09.540Z,1.00
2023-04-13T08:40:38.559Z,1.00
2023-04-13T08:43:20.934Z,86.60
2023-04-13T08:45:48.070Z,35.00
2023-04-13T08:48:15.794Z,76.90
2023-04-13T08:50:43.277Z,78.90
2023-04-13T08:53:10.161Z,63.10
2023-04-13T08:55:45.793Z,86.00
2023-04-13T08:58:13.835Z,1.00
2023-04-13T09:00:41.896Z,1.00
2023-04-13T09:03:14.176Z,1.00
2023-04-13T09:05:43.302Z,61.70
2023-04-13T09:08:13.594Z,91.40
2023-04-13T09:10:41.040Z,54.40
2023-04-13T09:13:07.827Z,1.00
2023-04-13T09:15:34.810Z,1.00
2023-04-13T09:18:12.588Z,1.00
2023-04-13T09:20:40.681Z,1.00
2023-04-13T09:23:14.941Z,78.70
2023-04-13T09:25:42.864Z,63.80
2023-04-13T09:28:19.572Z,1.00
2023-04-13T09:30:46.634Z,1.00
2023-04-13T09:33:15.800Z,1.00
2023-04-13T09:35:42.602Z,1.00
2023-04-13T09:38:11.727Z,80.90
2023-04-13T09:40:48.305Z,77.90
2023-04-13T09:43:15.099Z,61.70
2023-04-13T09:45:46.317Z,43.90
2023-04-13T09:48:23.104Z,54.00
2023-04-13T09:51:05.332Z,71.50
2023-04-13T09:53:43.054Z,1.00
2023-04-13T09:56:10.055Z,1.00
2023-04-13T09:58:46.626Z,1.00
2023-04-13T10:01:17.351Z,1.00
2023-04-13T10:03:44.718Z,90.60
2023-04-13T10:06:11.544Z,79.00
2023-04-13T10:08:39.311Z,84.00
2023-04-13T10:11:12.652Z,79.30
2023-04-13T10:13:53.504Z,75.90
2023-04-13T10:16:36.500Z,67.10
2023-04-13T10:19:15.331Z,79.70
2023-04-13T10:21:45.542Z,48.00
2023-04-13T10:24:13.444Z,24.50
2023-04-13T10:26:42.252Z,1.00
2023-04-13T10:29:11.392Z,1.00
2023-04-13T10:31:41.955Z,1.00
2023-04-13T10:34:10.469Z,1.00
2023-04-13T10:36:39.907Z,1.00
2023-04-13T10:39:06.718Z,1.00
2023-04-13T10:41:33.669Z,1.00
2023-04-13T10:44:05.140Z,1.00
2023-04-13T10:46:34.242Z,1.00
2023-04-13T10:49:02.393Z,1.00
2023-04-13T10:51:46.219Z,1.00
2023-04-13T10:54:14.298Z,1.00
2023-04-13T10:56:41.089Z,1.00
2023-04-13T10:59:08.178Z,1.00
2023-04-13T11:01:35.826Z,1.00
2023-04-13T11:04:06.472Z,1.00
2023-04-13T11:06:39.225Z,1.00
2023-04-13T11:09:13.105Z,92.00
2023-04-13T11:11:42.359Z,1.00
2023-04-13T11:14:09.121Z,1.00
2023-04-13T11:16:45.604Z,1.00
2023-04-13T11:19:12.331Z,1.00
2023-04-13T11:21:39.137Z,1.00
2023-04-13T11:24:06.300Z,1.00
2023-04-13T11:26:34.911Z,1.00
2023-04-13T11:29:03.612Z,1.00
2023-04-13T11:31:42.043Z,1.00
2023-04-13T11:34:13.184Z,1.00
2023-04-13T11:36:40.931Z,1.00
2023-04-13T11:39:10.699Z,1.00
2023-04-13T11:41:44.322Z,1.00
2023-04-13T11:44:14.690Z,1.00
2023-04-13T11:46:41.868Z,1.00
2023-04-13T11:49:08.881Z,1.00
2023-04-13T11:51:37.038Z,1.00
2023-04-13T11:54:04.304Z,90.70
2023-04-13T11:56:31.215Z,89.50
2023-04-13T12:01:29.090Z,84.50
2023-04-13T12:04:14.600Z,82.80
2023-04-13T12:06:45.839Z,74.80
2023-04-13T12:09:17.480Z,80.00
2023-04-13T12:11:50.534Z,80.50
2023-04-13T12:19:24.560Z,76.40
2023-04-13T12:21:56.735Z,87.40
2023-04-13T12:24:37.950Z,1.00
2023-04-13T12:29:39.361Z,1.00
2023-04-13T12:32:17.056Z,1.00
2023-04-13T12:34:44.950Z,1.00
2023-04-13T12:37:12.147Z,87.40
2023-04-13T12:39:39.081Z,91.30
2023-04-13T12:42:05.969Z,68.60
2023-04-13T12:44:34.301Z,2.50
2023-04-13T12:47:01.956Z,64.30
2023-04-13T12:49:28.878Z,89.10
2023-04-13T12:51:55.605Z,81.90
2023-04-13T12:54:22.391Z,63.00
2023-04-13T12:56:49.090Z,67.30
2023-04-13T12:59:16.738Z,77.20
2023-04-13T13:01:43.552Z,1.00
2023-04-13T13:04:10.581Z,1.00
2023-04-13T13:06:37.982Z,13.80
2023-04-13T13:09:05.772Z,1.00
2023-04-13T13:11:32.553Z,1.00
2023-04-13T13:13:59.315Z,90.50
2023-04-13T13:16:26.286Z,90.40
2023-04-13T13:18:53.189Z,69.50
2023-04-13T13:21:21.058Z,12.30
2023-04-13T13:23:47.846Z,39.00
2023-04-13T13:28:45.052Z,64.10
2023-04-13T13:31:12.765Z,72.80
2023-04-13T13:33:39.546Z,82.80
2023-04-13T13:36:07.581Z,63.30
2023-04-13T13:38:36.405Z,65.60
2023-04-13T13:41:03.562Z,41.10
2023-04-13T13:43:30.332Z,74.50
2023-04-13T13:45:57.123Z,42.70
2023-04-13T13:48:24.165Z,74.90
2023-04-13T13:50:50.976Z,18.70
2023-04-13T13:53:17.977Z,25.00
2023-04-13T13:55:45.133Z,84.70
2023-04-13T13:58:11.903Z,1.00
2023-04-13T14:00:38.975Z,83.90
2023-04-13T14:03:05.742Z,90.80
2023-04-13T14:05:32.703Z,87.70
2023-04-13T14:07:59.647Z,1.00
2023-04-13T14:10:26.458Z,1.00
2023-04-13T14:12:55.583Z,77.60
2023-04-13T14:15:22.513Z,1.00
2023-04-13T14:18:02.408Z,48.60
2023-04-13T14:20:38.502Z,1.00
2023-04-13T14:23:05.429Z,1.00
2023-04-13T14:25:32.184Z,68.70
2023-04-13T14:27:58.903Z,88.70
2023-04-13T14:30:27.807Z,1.00
2023-04-13T14:32:55.322Z,1.00
2023-04-13T14:35:22.210Z,1.00
2023-04-13T14:37:49.326Z,1.00
2023-04-13T14:40:17.014Z,1.00
2023-04-13T14:42:44.300Z,80.40
2023-04-13T14:45:12.415Z,1.00
2023-04-13T14:47:42.834Z,47.80
2023-04-13T14:50:09.934Z,1.00
2023-04-13T14:52:36.750Z,1.00
2023-04-13T14:55:04.361Z,1.00
2023-04-13T14:57:32.335Z,1.00
2023-04-13T14:59:59.133Z,83.00
2023-04-13T15:02:28.572Z,18.40
2023-04-13T15:04:55.965Z,1.00
2023-04-13T15:07:29.903Z,90.10
2023-04-13T15:09:58.061Z,84.10
2023-04-13T15:12:57.799Z,80.80
2023-04-13T15:15:24.687Z,63.20
2023-04-13T15:17:51.973Z,91.90
2023-04-13T15:20:18.668Z,91.30
2023-04-13T15:22:45.524Z,1.00
2023-04-13T15:25:12.396Z,1.00
2023-04-13T15:27:39.246Z,74.10
2023-04-13T15:30:07.737Z,90.00
2023-04-13T15:32:34.799Z,61.00
2023-04-13T15:35:01.862Z,85.80
2023-04-13T15:37:28.619Z,84.20
2023-04-13T15:39:55.393Z,82.20
2023-04-13T15:42:22.723Z,78.10
2023-04-13T15:44:49.545Z,90.40
2023-04-13T15:47:16.243Z,84.10
2023-04-13T15:49:42.992Z,63.00
2023-04-13T15:52:09.719Z,71.50
2023-04-13T15:54:36.521Z,72.60
2023-04-13T15:57:03.293Z,91.90
2023-04-13T15:59:30.910Z,74.10
2023-04-13T16:01:57.810Z,67.30
2023-04-13T16:04:24.904Z,64.80
2023-04-13T16:07:05.132Z,75.80
2023-04-13T16:09:36.574Z,84.00
2023-04-13T16:12:07.791Z,73.50
2023-04-13T16:14:45.188Z,83.90
2023-04-13T16:17:14.896Z,84.10
2023-04-13T16:19:47.337Z,88.50
2023-04-13T16:22:14.245Z,1.00
2023-04-13T16:24:41.954Z,1.00
2023-04-13T16:27:08.755Z,1.00
2023-04-13T16:29:35.577Z,14.90
2023-04-13T16:32:02.584Z,43.20
2023-04-13T16:34:29.556Z,28.10
2023-04-13T16:36:57.401Z,1.00
2023-04-13T16:39:24.264Z,38.80
2023-04-13T16:41:51.148Z,1.00
2023-04-13T16:44:17.986Z,65.50
2023-04-13T16:46:44.853Z,29.30
2023-04-13T16:49:12.415Z,65.00
2023-04-13T16:51:39.179Z,36.90
2023-04-13T16:54:11.670Z,85.90
2023-04-13T16:56:38.455Z,1.00
2023-04-13T16:59:05.383Z,75.10
2023-04-13T17:01:32.288Z,86.50
2023-04-13T17:03:59.081Z,1.00
2023-04-13T17:06:27.209Z,1.00
2023-04-13T17:08:53.977Z,1.00
2023-04-13T17:11:21.000Z,1.00
2023-04-13T17:13:47.796Z,31.30
2023-04-13T17:16:14.973Z,1.00
2023-04-13T17:18:42.551Z,73.30
2023-04-13T17:21:09.485Z,16.80
2023-04-13T17:23:36.303Z,1.00
2023-04-13T17:26:03.722Z,62.30
2023-04-13T17:28:30.607Z,1.00
2023-04-13T17:30:57.347Z,1.00
2023-04-13T17:33:24.429Z,1.00
2023-04-13T17:35:55.382Z,1.00
2023-04-13T17:38:22.200Z,42.10
2023-04-13T17:40:50.813Z,90.70
2023-04-13T17:43:17.777Z,95.20
2023-04-13T17:45:44.717Z,1.00
2023-04-13T17:48:11.497Z,1.00
2023-04-13T17:50:38.230Z,1.00
2023-04-13T17:53:05.333Z,1.00
2023-04-13T17:55:33.322Z,11.30
2023-04-13T17:58:00.292Z,7.90
2023-04-13T18:00:28.863Z,13.40
2023-04-13T18:02:55.967Z,23.30
2023-04-13T18:05:23.013Z,56.20
2023-04-13T18:07:49.715Z,60.90
2023-04-13T18:10:16.555Z,66.90
2023-04-13T18:12:43.373Z,69.70
2023-04-13T18:15:10.435Z,71.60
2023-04-13T18:17:38.436Z,72.00
2023-04-13T18:20:06.010Z,73.60
2023-04-13T18:22:33.160Z,76.30
2023-04-13T18:25:00.008Z,77.80
2023-04-13T18:27:27.617Z,79.00
2023-04-13T18:29:55.155Z,82.80
2023-04-13T18:32:23.028Z,88.00
2023-04-13T18:34:50.007Z,89.90
2023-04-13T18:37:16.837Z,90.90
2023-04-13T18:39:43.657Z,91.30
2023-04-13T18:42:10.482Z,91.50
2023-04-13T18:44:37.224Z,91.40
2023-04-13T18:47:04.084Z,91.60
2023-04-13T18:49:30.998Z,92.00
2023-04-13T18:51:57.838Z,92.50
2023-04-13T18:54:24.675Z,92.70
2023-04-13T18:56:51.392Z,92.60
2023-04-13T18:59:18.085Z,92.50
2023-04-13T19:01:45.964Z,92.90
2023-04-13T19:04:12.823Z,93.00
2023-04-13T19:06:39.927Z,93.20
2023-04-13T19:09:07.019Z,93.30
2023-04-13T19:11:48.049Z,93.40
2023-04-13T19:14:14.796Z,93.60
2023-04-13T19:16:41.821Z,93.50
2023-04-13T19:19:09.119Z,93.50
2023-04-13T19:21:35.878Z,93.60
2023-04-13T19:24:02.744Z,93.50
2023-04-13T19:26:29.665Z,93.60
2023-04-13T19:28:56.409Z,93.70
2023-04-13T19:31:23.593Z,93.70
2023-04-13T19:33:51.506Z,93.70
2023-04-13T19:36:18.324Z,93.60
2023-04-13T19:38:45.551Z,93.50
2023-04-13T19:41:13.360Z,93.50
2023-04-13T19:43:40.141Z,93.50
2023-04-13T19:46:06.992Z,93.50
2023-04-13T19:48:33.820Z,93.60
2023-04-13T19:51:00.567Z,93.70
2023-04-13T19:53:27.335Z,93.80
2023-04-13T19:55:54.121Z,93.90
2023-04-13T19:58:20.932Z,94.00
2023-04-13T20:00:47.697Z,94.10
2023-04-13T20:03:14.707Z,94.10
2023-04-13T20:05:41.812Z,94.10
2023-04-13T20:08:08.533Z,94.10
2023-04-13T20:10:35.284Z,94.20
2023-04-13T20:13:02.076Z,94.30
2023-04-13T20:15:32.864Z,94.30
2023-04-13T20:17:59.746Z,94.30
2023-04-13T20:20:28.446Z,94.30
2023-04-13T20:22:55.417Z,94.30
2023-04-13T20:25:22.142Z,94.40
2023-04-13T20:27:48.877Z,94.40
2023-04-13T20:30:15.811Z,94.40
2023-04-13T20:32:42.568Z,94.40
2023-04-13T20:35:09.836Z,94.40
2023-04-13T20:37:36.938Z,94.40
2023-04-13T20:40:07.006Z,94.50
2023-04-13T20:42:33.889Z,94.40
2023-04-13T20:45:01.777Z,94.40
2023-04-13T20:47:31.127Z,94.40
2023-04-13T20:49:59.736Z,94.50
2023-04-13T20:52:29.939Z,94.50
2023-04-13T20:54:56.976Z,94.40
2023-04-13T20:57:23.787Z,94.50
2023-04-13T20:59:52.028Z,94.50
2023-04-13T21:02:18.884Z,94.50
2023-04-13T21:04:46.678Z,94.50
2023-04-13T21:07:15.162Z,94.50
2023-04-13T21:09:42.348Z,94.50
2023-04-13T21:12:09.176Z,94.50
2023-04-13T21:14:36.046Z,94.50
2023-04-13T21:17:02.888Z,94.50
2023-04-13T21:19:29.692Z,94.50
2023-04-13T21:21:57.487Z,94.50
2023-04-13T21:24:24.704Z,94.50
2023-04-13T21:26:51.456Z,94.50
2023-04-13T21:29:19.958Z,94.50
2023-04-13T21:31:47.662Z,94.50
2023-04-13T21:34:14.576Z,94.50
2023-04-13T21:39:13.950Z,94.50
2023-04-13T21:41:41.556Z,94.40
2023-04-13T21:44:16.162Z,94.50
2023-04-13T21:46:53.103Z,94.50
2023-04-13T21:49:19.945Z,94.50
2023-04-13T21:51:46.718Z,94.50
2023-04-13T21:54:13.489Z,94.50
2023-04-13T21:56:40.224Z,94.50
2023-04-13T21:59:07.024Z,94.50
2023-04-13T22:01:33.845Z,94.50
2023-04-13T22:04:00.853Z,94.50
2023-04-13T22:06:29.098Z,94.50
2023-04-13T22:08:56.012Z,94.50
2023-04-13T22:11:22.796Z,94.50
2023-04-13T22:13:49.621Z,94.50
2023-04-13T22:16:16.893Z,94.50
2023-04-13T22:18:43.751Z,94.50
2023-04-13T22:21:10.585Z,94.50
2023-04-13T22:23:37.334Z,94.50
2023-04-13T22:26:04.311Z,94.50
2023-04-13T22:28:31.928Z,94.50
2023-04-13T22:31:04.954Z,94.60
2023-04-13T22:33:35.923Z,94.50
2023-04-13T22:36:06.955Z,94.50
2023-04-13T22:38:33.819Z,94.50
2023-04-13T22:41:06.419Z,94.50
2023-04-13T22:43:33.322Z,94.50
2023-04-13T22:46:00.744Z,94.50
2023-04-13T22:48:28.921Z,94.50
2023-04-13T22:50:56.640Z,94.50
2023-04-13T22:53:23.441Z,94.50
2023-04-13T22:55:50.766Z,94.50
2023-04-13T22:58:17.473Z,94.50
2023-04-13T23:00:44.193Z,94.50
2023-04-13T23:03:13.221Z,94.50
2023-04-13T23:05:40.427Z,94.50
2023-04-13T23:08:07.184Z,94.50
2023-04-13T23:10:33.999Z,94.50
2023-04-13T23:13:00.787Z,94.50
2023-04-13T23:15:27.480Z,94.50
2023-04-13T23:17:54.961Z,94.50
2023-04-13T23:20:22.633Z,94.50
2023-04-13T23:22:49.557Z,94.50
2023-04-13T23:25:16.452Z,94.50
2023-04-13T23:27:43.170Z,94.50
2023-04-13T23:30:10.501Z,94.50
2023-04-13T23:32:37.292Z,94.50
2023-04-13T23:35:04.518Z,94.50
2023-04-13T23:37:31.233Z,94.50
2023-04-13T23:39:58.070Z,94.50
2023-04-13T23:42:24.773Z,94.50
2023-04-13T23:44:51.511Z,94.50
2023-04-13T23:47:18.319Z,94.50
2023-04-13T23:49:46.785Z,94.50
2023-04-13T23:52:13.595Z,94.50
2023-04-13T23:54:40.568Z,94.60
2023-04-13T23:57:07.365Z,94.60
2023-04-13T23:59:34.059Z,94.60
